• Join FlightAware (Why Join?)
  • Login
  • US Flag 
Gobble Gobble! 
04:48PM EST


 

Airport Tracker/Info


-or-


 

Live Flight TrackerFlight Track Log ✈ JZA8745 ✈ 05-May-2013 ✈ CZBF - CYUL

Flight Track Log - Related Links

Times and Time Zones

All times are in EDT time to prevent confusion due to time zone crossing. See the JZA8745 flight status page for this flight to view local times or setup timezone preferences in your user account.

Time Position Orientation Groundspeed Altitude Reporting Facility
EDT Latitude Longitude Course Direction KTS MPH feet Rate Location/Type
03:03PM 47.5833 -65.7833 244° Southwest 200 230 4,700  Level Moncton Center
03:04PM 47.5667 -65.8667 254° West 170 196 6,300 1,440 Climbing Moncton Center
03:05PM 47.5500 -65.9167 244° Southwest 180 207 7,600 1,380 Climbing Moncton Center
03:06PM 47.5333 -65.9833 250° West 180 207 9,100 1,440 Climbing Moncton Center
03:07PM 47.5000 -66.0500 234° Southwest 180 207 10,500 1,320 Climbing Moncton Center
03:08PM 47.4833 -66.1000 244° Southwest 180 207 11,800 1,200 Climbing Moncton Center
03:09PM 47.3276 -66.5508 244° Southwest  Level FlightAware Approximate
03:09PM 47.4667 -66.1833 254° West 180 207 12,900  Level Moncton Center
03:10PM 47.4333 -66.2500 234° Southwest 200 230 13,900 960 Climbing Moncton Center
03:11PM 47.4167 -66.3333 254° West 210 242 14,900 1,140 Climbing Moncton Center
03:12PM 47.3833 -66.4167 239° Southwest 210 242 16,200 1,140 Climbing Moncton Center
03:13PM 47.3500 -66.5000 239° Southwest 200 230 17,200 780 Climbing Moncton Center
03:14PM 47.3333 -66.5667 250° West 210 242 17,800 720 Climbing Moncton Center
03:16PM 47.2667 -66.7167 237° Southwest 210 242 19,400 720 Climbing Moncton Center
03:17PM 47.2333 -66.7833 234° Southwest 210 242 20,100 660 Climbing Moncton Center
03:18PM 47.2167 -66.8667 254° West 210 242 20,800 600 Climbing Moncton Center
03:20PM 47.1667 -67.0000 241° Southwest 210 242 22,000 660 Climbing Moncton Center
03:21PM 47.1333 -67.1000 244° Southwest 210 242 22,800 660 Climbing Moncton Center
03:22PM 47.1000 -67.1833 240° Southwest 210 242 23,400 600 Climbing Moncton Center
03:23PM 47.0833 -67.2500 250° West 210 242 24,000 180 Climbing Moncton Center
03:25PM 47.0000 -67.4167 234° Southwest 240 276 24,000  Level Moncton Center
03:26PM 46.9667 -67.5167 244° Southwest 250 288 24,000  Level Moncton Center
03:27PM 46.9500 -67.6167 256° West 260 299 24,000  Level Moncton Center
03:28PM 46.9492 -67.6297 265° West 263 303 24,000  Level Boston Center
03:29PM 46.9133 -67.7242 241° Southwest 268 308 24,000  Level Boston Center
03:30PM 46.8775 -67.8153 240° Southwest 268 308 24,000  Level Boston Center
03:31PM 46.8417 -67.9153 242° Southwest 274 315 24,000  Level Boston Center
03:32PM 46.8061 -68.0153 243° Southwest 274 315 24,000  Level Boston Center
03:33PM 46.7700 -68.1089 241° Southwest 274 315 24,000  Level Boston Center
03:34PM 46.7425 -68.2142 249° West 274 315 24,000  Level Boston Center
03:35PM 46.7128 -68.3103 246° West 274 315 24,000  Level Boston Center
03:36PM 46.6828 -68.4122 247° West 274 315 24,000  Level Boston Center
03:37PM 46.6528 -68.5111 246° West 274 315 24,000  Level Boston Center
03:38PM 46.6250 -68.6097 248° West 280 322 24,000  Level Boston Center
03:39PM 46.5928 -68.7117 245° Southwest 275 316 24,000  Level Boston Center
03:40PM 46.5628 -68.8164 247° West 280 322 24,000  Level Boston Center
03:41PM 46.5325 -68.9150 246° West 280 322 24,000  Level Boston Center
03:42PM 46.5019 -69.0133 246° West 280 322 24,000  Level Boston Center
03:43PM 46.4758 -69.1172 250° West 280 322 24,000  Level Boston Center
03:44PM 46.4539 -69.2239 253° West 280 322 24,000  Level Boston Center
03:45PM 46.4358 -69.3275 256° West 275 316 24,000  Level Boston Center
03:46PM 46.4158 -69.4369 255° West 275 316 24,000  Level Boston Center
03:47PM 46.3978 -69.5431 256° West 275 316 24,000  Level Boston Center
03:48PM 46.3733 -69.6556 253° West 275 316 24,000 -60 Level Boston Center
03:49PM 46.3569 -69.7617 257° West 275 316 23,900  Descending Boston Center
03:50PM 46.3325 -69.8681 252° West 275 316 24,000  Climbing Boston Center
03:51PM 46.3139 -69.9742 256° West 280 322 24,000  Level Boston Center
03:52PM 46.2931 -70.0772 254° West 280 322 24,000  Level Boston Center
03:53PM 46.2744 -70.1889 256° West 280 322 24,000  Level Boston Center
03:53PM 46.2500 -70.2500 240° Southwest 270 311 24,000  Level Moncton Center
03:54PM 46.2333 -70.3500 256° West 270 311 24,000  Level Moncton Center
03:55PM 46.2167 -70.4667 258° West 270 311 24,000  Level Moncton Center
03:56PM 46.1833 -70.5667 244° Southwest 270 311 24,000  Level Moncton Center
03:57PM 46.1667 -70.6833 258° West 270 311 24,000  Level Moncton Center
03:58PM 46.1500 -70.7833 257° West 270 311 24,000  Level Moncton Center
03:59PM 46.1167 -70.9000 248° West 270 311 24,000  Level Moncton Center
04:00PM 46.1000 -70.9833 254° West 270 311 24,000  Level Moncton Center
04:01PM 46.0833 -71.1000 258° West 270 311 24,000  Level Moncton Center
04:02PM 46.0500 -71.2000 244° Southwest 270 311 24,000  Level Moncton Center
04:03PM 46.0500 -71.3167 270° West 270 311 24,000  Level Moncton Center
04:04PM 46.0167 -71.4167 244° Southwest 270 311 24,000 -480 Level Moncton Center
04:05PM 46.0000 -71.5333 258° West 280 322 23,100 -1,020 Descending Moncton Center
04:06PM 45.9833 -71.6333 257° West 300 345 22,000 -1,200 Descending Moncton Center
04:07PM 45.9500 -71.7667 250° West 310 357 20,800 -1,140 Descending Moncton Center
04:08PM 45.9333 -71.8833 258° West 310 357 19,800 -1,080 Descending Moncton Center
04:09PM 45.9000 -71.9833 244° Southwest 300 345 18,700 -1,200 Descending Moncton Center
04:10PM 45.8833 -72.1167 260° West 300 345 17,500 -1,200 Descending Moncton Center
04:11PM 45.8500 -72.2167 244° Southwest 300 345 16,400 -1,140 Descending Moncton Center
04:12PM 45.8333 -72.3333 258° West 300 345 15,300 -960 Descending Moncton Center
04:13PM 45.8000 -72.4500 248° West 300 345 14,500 -1,020 Descending Moncton Center
04:14PM 45.7833 -72.5667 258° West 300 345 13,300 -1,200 Descending Moncton Center
04:15PM 45.7500 -72.6833 248° West 290 334 12,200 -1,080 Descending Moncton Center
04:16PM 45.7333 -72.7667 254° West 280 322 11,200 -1,140 Descending Moncton Center
04:17PM 45.7167 -72.8833 258° West 290 334 10,000 -1,200 Descending Moncton Center
04:18PM 45.7167 -72.9833 270° West 280 322 8,900 -1,140 Descending Moncton Center
04:19PM 45.7000 -73.1000 258° West 260 299 7,800 -1,140 Descending Moncton Center
04:20PM 45.6833 -73.2000 257° West 240 276 6,700 -840 Descending Moncton Center
04:21PM 45.6667 -73.2667 250° West 240 276 6,200 -540 Descending Moncton Center
04:23PM 45.5908 -73.3565 240° Southwest  Level FlightAware Approximate
04:30PM 45.4681 -73.7414 270° West  Level Estimated
04:31PM 45.4681 -73.7414 55° Northeast  Level Estimated
04:32PM 45.4681 -73.7414 65° Northeast  Level Estimated